createdAt,value
2022-11-02T00:01:58.228Z,98983.78
2022-11-02T00:04:46.767Z,98987.38
2022-11-02T00:07:29.130Z,98992.00
2022-11-02T00:10:18.951Z,98993.16
2022-11-02T00:13:01.298Z,98991.56
2022-11-02T00:15:50.945Z,98989.94
2022-11-02T00:18:33.170Z,98991.38
2022-11-02T00:21:23.820Z,98988.34
2022-11-02T00:24:07.120Z,98982.34
2022-11-02T00:26:55.763Z,98979.34
2022-11-02T00:29:39.164Z,98979.91
2022-11-02T00:32:27.915Z,98975.56
2022-11-02T00:35:11.408Z,98984.66
2022-11-02T00:37:59.930Z,98984.69
2022-11-02T00:40:42.201Z,98977.28
2022-11-02T00:43:30.971Z,98984.13
2022-11-02T00:46:19.957Z,98985.19
2022-11-02T00:49:08.916Z,98980.84
2022-11-02T00:51:51.208Z,98972.59
2022-11-02T00:54:41.953Z,98974.75
2022-11-02T00:57:24.204Z,98973.66
2022-11-02T01:00:15.830Z,98978.00
2022-11-02T01:03:04.992Z,98977.78
2022-11-02T01:05:53.161Z,98986.84
2022-11-02T01:08:35.878Z,98993.41
2022-11-02T01:11:27.964Z,98990.97
2022-11-02T01:14:16.975Z,98992.13
2022-11-02T01:16:59.180Z,99001.44
2022-11-02T01:19:47.892Z,99000.31
2022-11-02T01:22:30.093Z,99008.78
2022-11-02T01:25:19.820Z,99017.81
2022-11-02T01:28:02.439Z,99025.94
2022-11-02T01:30:52.921Z,99021.00
2022-11-02T01:33:42.367Z,99032.69
2022-11-02T01:36:28.919Z,99027.16
2022-11-02T01:39:23.809Z,99028.19
2022-11-02T01:42:23.783Z,99032.09
2022-11-02T01:45:13.100Z,99042.91
2022-11-02T01:48:02.193Z,99036.31
2022-11-02T01:50:45.202Z,99046.66
2022-11-02T01:53:33.923Z,99051.63
2022-11-02T01:56:18.232Z,99050.44
2022-11-02T01:59:10.947Z,99055.28
2022-11-02T02:01:54.285Z,99052.25
2022-11-02T02:04:44.934Z,99056.22
2022-11-02T02:07:28.215Z,99060.56
2022-11-02T02:10:17.884Z,99057.53
2022-11-02T02:13:00.182Z,99065.44
2022-11-02T02:16:18.858Z,99065.13
2022-11-02T02:19:06.145Z,99060.81
2022-11-02T02:22:37.914Z,99065.13
2022-11-02T02:26:07.226Z,99066.75
2022-11-02T02:29:23.875Z,99071.88
2022-11-02T02:32:50.849Z,99059.84
2022-11-02T02:35:53.136Z,99059.16
2022-11-02T02:38:59.887Z,99065.56
2022-11-02T02:41:56.278Z,99063.91
2022-11-02T02:44:43.872Z,99060.19
2022-11-02T02:47:36.123Z,99056.00
2022-11-02T02:50:35.960Z,99072.50
2022-11-02T02:53:36.856Z,99094.94
2022-11-02T02:56:29.130Z,99094.53
2022-11-02T02:59:22.910Z,99091.28
2022-11-02T03:02:17.272Z,99082.72
2022-11-02T03:04:58.865Z,99095.56
2022-11-02T03:07:47.145Z,99105.56
2022-11-02T03:10:38.269Z,99115.97
2022-11-02T03:13:57.126Z,99134.38
2022-11-02T03:17:03.898Z,99127.34
2022-11-02T03:20:12.844Z,99129.41
2022-11-02T03:23:04.153Z,99127.59
2022-11-02T03:26:02.567Z,99132.75
2022-11-02T03:29:09.284Z,99145.97
2022-11-02T03:32:08.904Z,99141.25
2022-11-02T03:35:11.839Z,99157.66
2022-11-02T03:38:15.721Z,99146.53
2022-11-02T03:41:08.927Z,99145.72
2022-11-02T03:43:55.167Z,99148.22
2022-11-02T03:46:48.851Z,99144.06
2022-11-02T03:49:33.102Z,99132.19
2022-11-02T03:52:28.869Z,99139.84
2022-11-02T03:55:30.819Z,99136.19
2022-11-02T03:58:20.158Z,99136.06
2022-11-02T04:01:07.951Z,99139.28
2022-11-02T04:03:58.141Z,99137.13
2022-11-02T04:06:42.769Z,99138.06
2022-11-02T04:09:32.861Z,99123.75
2022-11-02T04:12:34.423Z,99125.53
2022-11-02T04:15:23.787Z,99118.91
2022-11-02T04:18:24.145Z,99113.22
2022-11-02T04:21:12.740Z,99108.09
2022-11-02T04:24:13.817Z,99111.72
2022-11-02T04:27:03.810Z,99112.78
2022-11-02T04:29:47.166Z,99111.66
2022-11-02T04:33:01.899Z,99106.69
2022-11-02T04:35:52.179Z,99112.97
2022-11-02T04:38:52.179Z,99115.78
2022-11-02T04:41:43.197Z,99110.34
2022-11-02T04:44:54.906Z,99123.81
2022-11-02T04:47:44.186Z,99118.94
2022-11-02T04:50:26.771Z,99126.16
2022-11-02T04:53:09.128Z,99120.25
2022-11-02T04:56:00.766Z,99124.69
2022-11-02T04:58:50.613Z,99123.78
2022-11-02T05:01:36.883Z,99114.06
2022-11-02T05:04:19.098Z,99111.44
2022-11-02T05:07:07.755Z,99115.34
2022-11-02T05:09:56.785Z,99110.66
2022-11-02T05:12:41.195Z,99110.94
2022-11-02T05:15:29.781Z,99109.16
2022-11-02T05:18:18.680Z,99098.72
2022-11-02T05:21:10.864Z,99107.84
2022-11-02T05:24:00.761Z,99102.41
2022-11-02T05:26:53.851Z,99087.66
2022-11-02T05:29:37.244Z,99087.28
2022-11-02T05:32:25.738Z,99086.06
2022-11-02T05:35:09.295Z,99074.28
2022-11-02T05:38:08.731Z,99086.03
2022-11-02T05:41:07.147Z,99077.84
2022-11-02T05:43:50.897Z,99076.38
2022-11-02T05:46:42.127Z,99071.53
2022-11-02T05:49:24.572Z,99063.97
2022-11-02T05:52:07.019Z,99057.28
2022-11-02T05:54:55.791Z,99051.16
2022-11-02T05:57:38.058Z,99042.19
2022-11-02T06:00:26.910Z,99040.31
2022-11-02T06:03:09.135Z,99032.41
2022-11-02T06:05:57.938Z,99036.34
2022-11-02T06:08:47.145Z,99029.56
2022-11-02T06:11:29.804Z,99016.06
2022-11-02T06:14:18.142Z,99019.50
2022-11-02T06:17:00.846Z,99015.97
2022-11-02T06:19:43.088Z,99012.50
2022-11-02T06:22:31.754Z,99004.38
2022-11-02T06:25:21.840Z,99006.19
2022-11-02T06:28:11.782Z,99003.63
2022-11-02T06:31:00.788Z,98997.69
2022-11-02T06:33:43.209Z,98982.28
2022-11-02T06:36:31.771Z,98982.84
2022-11-02T06:39:20.196Z,98970.69
2022-11-02T06:42:02.844Z,98976.03
2022-11-02T06:44:51.792Z,98962.22
2022-11-02T06:47:45.907Z,98962.41
2022-11-02T06:50:28.142Z,98960.09
2022-11-02T06:53:16.929Z,98945.19
2022-11-02T06:56:01.085Z,98946.78
2022-11-02T06:58:49.840Z,98944.44
2022-11-02T07:01:38.940Z,98928.44
2022-11-02T07:04:27.917Z,98930.94
2022-11-02T07:07:16.223Z,98919.31
2022-11-02T07:09:58.737Z,98913.31
2022-11-02T07:12:40.999Z,98906.13
2022-11-02T07:15:30.601Z,98897.97
2022-11-02T07:18:20.147Z,98898.59
2022-11-02T07:21:02.869Z,98883.47
2022-11-02T07:23:51.728Z,98877.66
2022-11-02T07:26:40.858Z,98869.69
2022-11-02T07:29:23.112Z,98868.03
2022-11-02T07:32:11.766Z,98859.63
2022-11-02T07:35:00.758Z,98854.09
2022-11-02T07:37:49.967Z,98854.25
2022-11-02T07:40:40.230Z,98844.28
2022-11-02T07:43:22.892Z,98844.75
2022-11-02T07:46:34.059Z,98842.03
2022-11-02T07:49:22.830Z,98835.78
2022-11-02T07:52:05.251Z,98828.25
2022-11-02T07:54:53.835Z,98821.53
2022-11-02T07:57:42.209Z,98821.91
2022-11-02T08:00:24.833Z,98819.59
2022-11-02T08:03:16.274Z,98814.97
2022-11-02T08:05:57.901Z,98801.38
2022-11-02T08:08:40.020Z,98807.94
2022-11-02T08:11:29.596Z,98795.13
2022-11-02T08:14:18.898Z,98781.88
2022-11-02T08:17:01.192Z,98787.50
2022-11-02T08:19:49.906Z,98777.69
2022-11-02T08:22:38.870Z,98784.09
2022-11-02T08:25:27.155Z,98776.97
2022-11-02T08:28:09.743Z,98775.38
2022-11-02T08:30:58.126Z,98766.41
2022-11-02T08:33:40.836Z,98772.97
2022-11-02T08:36:29.847Z,98761.78
2022-11-02T08:39:24.803Z,98753.41
2022-11-02T08:42:13.925Z,98751.38
2022-11-02T08:44:56.123Z,98750.44
2022-11-02T08:47:49.863Z,98743.34
2022-11-02T08:50:33.113Z,98738.78
2022-11-02T08:53:21.887Z,98741.50
2022-11-02T08:56:07.222Z,98734.47
2022-11-02T08:58:55.750Z,98733.91
2022-11-02T09:01:40.095Z,98729.81
2022-11-02T09:04:28.884Z,98727.84
2022-11-02T09:07:11.126Z,98715.44
2022-11-02T09:10:00.119Z,98729.03
2022-11-02T09:12:42.118Z,98717.81
2022-11-02T09:15:30.911Z,98715.22
2022-11-02T09:18:15.195Z,98720.28
2022-11-02T09:21:03.861Z,98711.56
2022-11-02T09:23:49.453Z,98714.38
2022-11-02T09:26:37.760Z,98711.50
2022-11-02T09:29:20.159Z,98699.97
2022-11-02T09:32:08.890Z,98701.03
2022-11-02T09:34:51.676Z,98699.75
2022-11-02T09:37:41.182Z,98702.72
2022-11-02T09:40:38.132Z,98698.69
2022-11-02T09:43:44.835Z,98696.56
2022-11-02T09:46:39.142Z,98702.16
2022-11-02T09:49:34.762Z,98688.47
2022-11-02T09:52:37.727Z,98686.47
2022-11-02T09:55:26.435Z,98676.97
2022-11-02T09:58:22.745Z,98682.00
2022-11-02T10:01:18.376Z,98676.34
2022-11-02T10:04:12.116Z,98672.44
2022-11-02T10:07:11.841Z,98679.09
2022-11-02T10:10:03.329Z,98676.31
2022-11-02T10:13:17.796Z,98671.72
2022-11-02T10:16:19.271Z,98660.75
2022-11-02T10:19:09.744Z,98660.84
2022-11-02T10:21:58.495Z,98660.03
2022-11-02T10:24:56.806Z,98659.16
2022-11-02T10:27:47.847Z,98655.75
2022-11-02T10:30:36.760Z,98660.34
2022-11-02T10:33:28.328Z,98656.63
2022-11-02T10:36:27.848Z,98654.41
2022-11-02T10:39:30.748Z,98650.31
2022-11-02T10:42:33.827Z,98645.53
2022-11-02T10:45:43.236Z,98649.06
2022-11-02T10:48:55.857Z,98646.50
2022-11-02T10:51:44.821Z,98637.38
2022-11-02T10:54:33.257Z,98638.66
2022-11-02T10:57:26.872Z,98639.69
2022-11-02T11:00:34.484Z,98641.75
2022-11-02T11:03:24.735Z,98643.59
2022-11-02T11:06:13.122Z,98643.25
2022-11-02T11:09:07.711Z,98637.03
2022-11-02T11:12:00.132Z,98645.09
2022-11-02T11:21:09.182Z,98629.44
2022-11-02T11:24:45.839Z,98633.13
2022-11-02T11:27:34.841Z,98629.09
2022-11-02T11:31:09.423Z,98635.03
2022-11-02T11:33:52.679Z,98633.97
2022-11-02T11:36:44.699Z,98629.03
2022-11-02T11:39:45.719Z,98632.41
2022-11-02T11:42:38.732Z,98627.72
2022-11-02T11:45:32.090Z,98626.00
2022-11-02T11:48:49.822Z,98628.34
2022-11-02T11:51:46.271Z,98623.66
2022-11-02T11:54:38.759Z,98619.03
2022-11-02T11:57:47.934Z,98620.97
2022-11-02T12:00:37.137Z,98622.38
2022-11-02T12:03:20.926Z,98621.31
2022-11-02T12:06:31.811Z,98620.88
2022-11-02T12:09:31.714Z,98620.63
2022-11-02T12:12:23.574Z,98619.19
2022-11-02T12:15:36.837Z,98615.16
2022-11-02T12:19:18.783Z,98627.53
2022-11-02T12:22:22.733Z,98628.88
2022-11-02T12:25:29.779Z,98620.94
2022-11-02T12:28:24.508Z,98621.44
2022-11-02T12:31:35.849Z,98624.34
2022-11-02T12:38:42.821Z,98626.31
2022-11-02T12:41:57.879Z,98628.41
2022-11-02T12:45:07.242Z,98632.47
2022-11-02T12:48:12.280Z,98623.25
2022-11-02T12:51:15.017Z,98624.69
2022-11-02T12:54:17.467Z,98627.44
2022-11-02T12:57:08.436Z,98637.81
2022-11-02T13:00:42.302Z,98632.78
2022-11-02T13:04:00.703Z,98637.31
2022-11-02T13:07:05.761Z,98641.47
2022-11-02T13:10:21.420Z,98633.53
2022-11-02T13:13:23.982Z,98641.81
2022-11-02T13:16:22.456Z,98638.38
2022-11-02T13:19:25.033Z,98640.66
2022-11-02T13:22:16.911Z,98649.38
2022-11-02T13:25:25.851Z,98646.78
2022-11-02T13:28:19.656Z,98649.00
2022-11-02T13:31:25.294Z,98638.78
2022-11-02T13:34:26.434Z,98653.81
2022-11-02T13:37:40.646Z,98650.41
2022-11-02T13:40:45.671Z,98656.22
2022-11-02T13:44:04.379Z,98654.25
2022-11-02T13:47:33.773Z,98652.34
2022-11-02T13:50:31.096Z,98668.03
2022-11-02T13:53:21.922Z,98665.94
2022-11-02T13:56:34.191Z,98669.16
2022-11-02T13:59:43.196Z,98674.88
2022-11-02T14:02:36.737Z,98673.75
2022-11-02T14:05:39.191Z,98666.94
2022-11-02T14:08:44.786Z,98668.41
2022-11-02T14:11:52.119Z,98665.50
2022-11-02T14:15:01.028Z,98670.50
2022-11-02T14:18:07.959Z,98671.69
2022-11-02T14:21:00.313Z,98677.03
2022-11-02T14:23:58.337Z,98667.75
2022-11-02T14:27:07.401Z,98663.91
2022-11-02T14:30:05.189Z,98663.91
2022-11-02T14:33:20.257Z,98669.19
2022-11-02T14:36:34.940Z,98669.63
2022-11-02T14:40:17.636Z,98670.72
2022-11-02T14:43:10.434Z,98666.78
2022-11-02T14:46:42.154Z,98673.28
2022-11-02T14:49:33.602Z,98672.78
2022-11-02T14:52:39.864Z,98667.25
2022-11-02T14:55:34.085Z,98665.09
2022-11-02T14:58:38.350Z,98674.59
2022-11-02T15:01:31.524Z,98669.63
2022-11-02T15:04:41.923Z,98677.34
2022-11-02T15:07:50.077Z,98682.28
2022-11-02T15:10:46.342Z,98680.56
2022-11-02T15:13:59.074Z,98676.78
2022-11-02T15:20:03.092Z,98669.69
2022-11-02T15:22:58.419Z,98671.50
2022-11-02T15:25:58.750Z,98677.81
2022-11-02T15:28:50.945Z,98676.19
2022-11-02T15:31:47.612Z,98674.16
2022-11-02T15:34:51.343Z,98677.19
2022-11-02T15:38:03.339Z,98673.34
2022-11-02T15:41:29.171Z,98675.28
2022-11-02T15:44:23.898Z,98684.91
2022-11-02T15:47:42.938Z,98682.69
2022-11-02T15:50:55.305Z,98684.31
2022-11-02T15:53:53.504Z,98683.09
2022-11-02T15:56:52.806Z,98685.72
2022-11-02T15:59:53.981Z,98680.56
2022-11-02T16:02:41.301Z,98687.78
2022-11-02T16:05:37.811Z,98683.91
2022-11-02T16:08:32.837Z,98686.84
2022-11-02T16:11:31.844Z,98680.84
2022-11-02T16:14:20.466Z,98683.50
2022-11-02T16:17:09.855Z,98689.59
2022-11-02T16:19:58.915Z,98684.41
2022-11-02T16:22:42.311Z,98687.56
2022-11-02T16:25:53.942Z,98688.66
2022-11-02T16:28:46.321Z,98688.66
2022-11-02T16:31:39.797Z,98683.25
2022-11-02T16:34:32.202Z,98687.34
2022-11-02T16:37:26.843Z,98690.38
2022-11-02T16:40:15.838Z,98693.97
2022-11-02T16:43:04.809Z,98684.59
2022-11-02T16:45:48.343Z,98694.47
2022-11-02T16:48:40.887Z,98691.38
2022-11-02T16:51:27.249Z,98691.09
2022-11-02T16:54:35.836Z,98698.34
2022-11-02T16:57:27.846Z,98701.25
2022-11-02T17:00:21.010Z,98699.22
2022-11-02T17:03:10.992Z,98702.97
2022-11-02T17:05:54.915Z,98702.59
2022-11-02T17:08:47.805Z,98695.75
2022-11-02T17:11:36.302Z,98697.69
2022-11-02T17:14:26.885Z,98684.50
2022-11-02T17:17:36.845Z,98704.41
2022-11-02T17:20:19.204Z,98702.19
2022-11-02T17:23:10.831Z,98695.09
2022-11-02T17:25:59.811Z,98696.19
2022-11-02T17:28:54.782Z,98700.22
2022-11-02T17:31:46.373Z,98694.44
2022-11-02T17:34:35.813Z,98697.09
2022-11-02T17:37:31.554Z,98695.75
2022-11-02T17:40:22.088Z,98698.91
2022-11-02T17:43:05.695Z,98700.34
2022-11-02T17:46:02.187Z,98697.59
2022-11-02T17:48:45.430Z,98698.78
2022-11-02T17:51:35.082Z,98703.06
2022-11-02T17:54:21.907Z,98692.13
2022-11-02T17:57:18.889Z,98700.84
2022-11-02T18:00:01.970Z,98686.72
2022-11-02T18:02:58.879Z,98691.69
2022-11-02T18:05:49.621Z,98696.44
2022-11-02T18:08:59.904Z,98696.34
2022-11-02T18:11:46.024Z,98695.69
2022-11-02T18:14:36.624Z,98699.75
2022-11-02T18:17:20.402Z,98692.03
2022-11-02T18:20:09.783Z,98692.88
2022-11-02T18:22:53.251Z,98699.03
2022-11-02T18:25:42.814Z,98704.09
2022-11-02T18:28:32.800Z,98706.50
2022-11-02T18:31:22.488Z,98708.94
2022-11-02T18:34:06.152Z,98712.44
2022-11-02T18:36:49.514Z,98707.47
2022-11-02T18:39:40.321Z,98715.09
2022-11-02T18:42:23.919Z,98720.34
2022-11-02T18:45:13.258Z,98721.16
2022-11-02T18:48:04.851Z,98716.19
2022-11-02T18:50:47.993Z,98722.00
2022-11-02T18:53:30.704Z,98712.06
2022-11-02T18:56:22.203Z,98717.34
2022-11-02T18:59:10.889Z,98717.16
2022-11-02T19:01:54.733Z,98712.34
2022-11-02T19:04:43.808Z,98711.47
2022-11-02T19:07:44.590Z,98717.81
2022-11-02T19:10:33.795Z,98719.22
2022-11-02T19:13:16.253Z,98720.03
2022-11-02T19:16:04.846Z,98715.34
2022-11-02T19:18:47.169Z,98718.28
2022-11-02T19:21:35.813Z,98720.38
2022-11-02T19:24:19.032Z,98723.88
2022-11-02T19:27:07.911Z,98716.28
2022-11-02T19:29:50.090Z,98710.28
2022-11-02T19:32:38.765Z,98705.22
2022-11-02T19:35:21.306Z,98708.28
2022-11-02T19:38:10.282Z,98712.69
2022-11-02T19:40:58.794Z,98705.63
2022-11-02T19:43:49.906Z,98705.16
2022-11-02T19:46:40.359Z,98703.53
2022-11-02T19:49:22.089Z,98711.97
2022-11-02T19:52:10.796Z,98699.22
2022-11-02T19:54:59.807Z,98700.41
2022-11-02T19:57:42.112Z,98703.66
2022-11-02T20:00:30.795Z,98700.88
2022-11-02T20:03:14.437Z,98699.47
2022-11-02T20:06:11.783Z,98701.38
2022-11-02T20:08:58.230Z,98699.84
2022-11-02T20:11:49.774Z,98696.06
2022-11-02T20:14:38.824Z,98696.94
2022-11-02T20:17:52.006Z,98701.03
2022-11-02T20:20:29.894Z,98696.13
2022-11-02T20:23:11.981Z,98690.72
2022-11-02T20:26:01.802Z,98694.50
2022-11-02T20:28:52.128Z,98687.63
2022-11-02T20:31:49.777Z,98689.19
2022-11-02T20:34:32.701Z,98681.34
2022-11-02T20:37:21.792Z,98678.53
2022-11-02T20:40:04.278Z,98668.19
2022-11-02T20:42:52.761Z,98663.66
2022-11-02T20:45:42.723Z,98663.81
2022-11-02T20:48:31.689Z,98662.22
2022-11-02T20:51:15.132Z,98668.59
2022-11-02T20:54:03.820Z,98663.44
2022-11-02T20:56:46.043Z,98660.25
2022-11-02T20:59:34.880Z,98652.56
2022-11-02T21:02:29.733Z,98650.88
2022-11-02T21:05:12.248Z,98641.63
2022-11-02T21:08:01.724Z,98647.16
2022-11-02T21:10:51.080Z,98651.09
2022-11-02T21:13:52.864Z,98644.66
2022-11-02T21:16:36.287Z,98635.88
2022-11-02T21:19:24.786Z,98630.97
2022-11-02T21:22:13.130Z,98630.75
2022-11-02T21:24:54.698Z,98633.88
2022-11-02T21:27:37.185Z,98625.00
2022-11-02T21:30:25.857Z,98637.25
2022-11-02T21:33:14.050Z,98635.13
2022-11-02T21:35:56.681Z,98636.31
2022-11-02T21:38:39.504Z,98627.78
2022-11-02T21:41:36.779Z,98633.56
2022-11-02T21:44:25.786Z,98624.81
2022-11-02T21:47:09.756Z,98625.91
2022-11-02T21:49:58.691Z,98626.75
2022-11-02T21:52:45.408Z,98628.91
2022-11-02T21:55:34.821Z,98621.00
2022-11-02T21:58:18.095Z,98616.72
2022-11-02T22:01:31.874Z,98617.53
2022-11-02T22:04:15.105Z,98617.56
2022-11-02T22:07:03.828Z,98614.38
2022-11-02T22:09:46.108Z,98615.16
2022-11-02T22:12:52.826Z,98612.44
2022-11-02T22:15:38.274Z,98613.31
2022-11-02T22:18:27.863Z,98613.97
2022-11-02T22:21:10.070Z,98615.16
2022-11-02T22:23:59.676Z,98614.03
2022-11-02T22:26:44.231Z,98613.00
2022-11-02T22:29:32.856Z,98606.47
2022-11-02T22:32:22.743Z,98613.69
2022-11-02T22:35:11.646Z,98619.16
2022-11-02T22:38:12.335Z,98625.72
2022-11-02T22:41:07.748Z,98615.84
2022-11-02T22:43:57.790Z,98619.97
2022-11-02T22:46:49.355Z,98612.50
2022-11-02T22:49:30.844Z,98614.25
2022-11-02T22:52:19.051Z,98615.91
2022-11-02T22:55:00.698Z,98615.38
2022-11-02T22:57:49.132Z,98621.38
2022-11-02T23:00:31.686Z,98620.19
2022-11-02T23:03:20.092Z,98620.06
2022-11-02T23:06:02.908Z,98623.38
2022-11-02T23:08:53.201Z,98624.63
2022-11-02T23:11:37.842Z,98622.75
2022-11-02T23:14:22.193Z,98613.09
2022-11-02T23:17:10.872Z,98624.47
2022-11-02T23:19:59.116Z,98621.97
2022-11-02T23:22:41.748Z,98633.19
2022-11-02T23:25:30.077Z,98641.56
2022-11-02T23:28:47.699Z,98640.22
2022-11-02T23:31:48.450Z,98637.72
2022-11-02T23:34:37.727Z,98642.16
2022-11-02T23:37:26.049Z,98647.09
2022-11-02T23:40:21.683Z,98652.16
2022-11-02T23:43:10.140Z,98636.94
2022-11-02T23:45:51.763Z,98643.06
2022-11-02T23:48:40.870Z,98643.31
2022-11-02T23:51:41.900Z,98646.34
2022-11-02T23:54:48.826Z,98649.06
2022-11-02T23:57:31.109Z,98642.66
